Alcaraz, Argentina
Current Conditions -  °F | °C
As of 12:00 PM on Thursday 18 Dec 2014 (Local Time) from SUSO Reporting Station
Broken Clouds Broken Clouds  
Wind Chill: 88°   Ceiling: 20000
Heat Index: 88°   Visibility: 6mi
Dew Point: 57°   Wind: 12mph
Humidity: 35%   Direction: 200°SSW
Pressure: 29.88"   Gusts: NA
Location:  31.47°S, 59.6°W
Report Text: SUSO 181500Z 20010KT 9999 FEW027 BKN200 31/14 Q1012
Loading
Personal Weather Stations






























Interactive Weather Map New forecast layout! Learn more

10-Day Weather Forecast

Advertisements
Track Severe Weather on mobile